Latest Coastal Weather Observations for Cairns

IDQ60701

Issued at 7:25 pm EST Friday 25 April 2014 (issued every 10 minutes, with the page automatically refreshed every 10 minutes)

About coastal observations | Map of coastal stations | Coastal observations for QLD | Marine services | Other Formats
Station Details ID: 031011 Name: CAIRNS AERO Lat: -16.87 Lon: 145.75 Height: 2.22 m
Data from the previous 72 hours. | See also: Recent months at Cairns
Date/Time
EST
Temp

°C
Wind Pressure Rain
since 9am
mm
Weather Cloud Vis
km
Sea
Height
m
Swell
Dir
 
Speed
knots
Gust
knots
hPa Trend Height
m
Period
s
Dir
25/07:14pm 23.9 S 6 11 1013.0 - 31.6 Showers Mostly clear 4 - - - -
25/07:00pm 23.4 SE 4 7 1012.6 - 30.2 Showers Mostly clear 10 - - - -
25/06:43pm 23.5 SSE 6 9 1012.4 - 30.2 Showers Mostly clear 8 - - - -
25/06:30pm 23.4 ESE 9 13 1012.3 - 29.2 Showers Partly cloudy 4 - - - -
25/06:11pm 23.8 SSE 11 15 1012.0 - 21.4 Showers Mostly clear 3 - - - -
25/06:00pm 24.1 S 11 17 1011.4 - 18.2 - Cloudy 6 - - - -
25/05:30pm 23.8 SSW 10 16 1011.3 - 17.8 Showers Mostly clear 8 - - - -
25/05:00pm 23.8 S 13 18 1010.9 - 17.0 Showers Mostly clear 7 - - - -
25/04:30pm 24.1 SSE 12 18 1010.6 - 16.6 Showers Mostly clear 4 - - - -
25/04:19pm 24.2 SSE 12 16 1010.5 - 16.2 - Partly cloudy 6 - - - -
25/04:00pm 24.5 SSE 9 13 1010.6 - 15.4 Showers Mostly clear 4 - - - -
25/03:30pm 24.1 SSE 12 17 1010.4 - 13.2 Showers Mostly clear 3 - - - -
25/03:00pm 24.3 SE 9 13 1010.3 R 8.8 Showers Cloudy 4 - - - -
25/02:54pm 24.4 SE 8 13 1010.5 - 7.4 Showers Mostly clear 4 - - - -
25/02:40pm 24.9 SSE 10 14 1010.5 - 2.8 Showers Mostly clear 4 - - - -
25/02:30pm 25.7 S 11 17 1010.3 - 1.8 Showers Mostly clear 6 - - - -
25/02:10pm 25.3 S 9 15 1010.5 - 1.6 Showers Mostly clear 6 - - - -
25/02:00pm 25.2 S 9 14 1010.7 - 1.6 Showers Mostly clear 8 - - - -
25/01:30pm 25.2 S 11 17 1010.9 - 1.6 - Mostly clear 10 - - - -
25/01:00pm 25.6 S 9 15 1011.4 - 1.6 - Mostly clear 10 - - - -
25/12:30pm 25.6 S 10 17 1011.8 - 1.6 Showers Mostly clear 8 - - - -
25/12:00pm 25.7 S 10 16 1012.0 - 1.6 - Cloudy 10 - - - -
25/11:30am 25.5 SSE 14 19 1012.6 - 1.6 - Partly cloudy 10 - - - -
25/11:11am 24.9 SSE 15 21 1012.7 - 1.6 - Mostly clear 10 - - - -
25/11:00am 24.7 SSE 14 20 1012.9 - 1.6 Showers Mostly clear 5 - - - -
25/10:41am 26.0 SSE 13 20 1012.8 - 1.6 Showers Mostly clear 5 - - - -
25/10:30am 26.1 SSE 10 14 1013.0 - 1.6 - Mostly clear 10 - - - -
25/10:18am 25.8 S 11 15 1013.1 - 1.6 - Mostly clear 10 - - - -
25/09:59am 25.2 SSE 11 15 1013.2 - 1.6 - Mostly clear 10 - - - -
25/09:38am 24.9 SSE 8 10 1013.1 - 1.0 Showers Mostly clear 4 - - - -
25/09:30am 25.3 S 8 14 1012.9 - 0.0 Showers Mostly clear 5 - - - -
25/09:00am 24.8 S 9 14 1012.7 R 53.0 Showers Mostly cloudy 7 - - - -
25/08:50am 24.9 S 9 14 1012.7 - 53.0 - Mostly clear 9 - - - -
25/08:30am 24.7 S 9 15 1012.7 - 53.0 Showers Mostly clear 7 - - - -
25/08:22am 24.9 S 7 13 1012.5 - 52.4 Showers Mostly clear 8 - - - -
25/08:00am 24.1 SSE 8 13 1012.5 - 51.8 Showers Mostly clear 4 - - - -
25/07:30am 24.5 S 8 11 1011.9 - 47.8 Showers Partly cloudy 5 - - - -
25/07:00am 24.5 SSW 9 13 1011.6 - 47.2 Showers Partly cloudy 6 - - - -
25/06:30am 24.0 SSE 10 14 1011.2 - 46.2 Showers Mostly clear 4 - - - -
25/06:14am 24.1 SSE 10 14 1010.9 - 45.4 Showers Mostly clear 6 - - - -
25/06:00am 24.7 S 9 14 1010.5 - 45.2 - Cloudy 10 - - - -
25/05:30am 24.1 S 10 14 1010.4 - 45.0 Showers Mostly clear 8 - - - -
25/05:00am 24.5 S 9 13 1010.1 - 44.4 Showers Mostly clear 10 - - - -
25/04:30am 24.4 S 9 14 1009.8 - 44.4 - Mostly clear 10 - - - -
25/04:00am 24.8 S 11 16 1009.9 - 44.4 Showers Partly cloudy 10 - - - -
25/03:30am 24.7 S 10 17 1009.9 - 44.4 - Partly cloudy 10 - - - -
25/03:00am 24.6 S 9 14 1010.0 - 44.4 - Mostly clear 10 - - - -
25/02:30am 24.8 S 10 15 1010.2 - 44.4 - Mostly clear 10 - - - -
25/02:00am 24.8 S 9 14 1010.5 - 44.4 Showers Mostly clear 10 - - - -
25/01:30am 24.7 S 10 15 1010.7 - 44.4 - Mostly clear 10 - - - -
25/01:00am 24.9 S 10 14 1011.1 - 44.4 - Mostly clear 10 - - - -
25/12:30am 24.7 S 9 16 1011.4 - 44.4 - Mostly clear 10 - - - -
25/12:00am 24.6 S 10 15 1011.6 - 44.4 - Cloudy 22 - - - -
 
Date/Time
EST
Temp

°C
Wind Pressure Rain
since 9am
mm
Weather Cloud Vis
km
Sea
Height
m
Swell
Dir
 
Speed
knots
Gust
knots
hPa Trend Height
m
Period
s
Dir
24/11:30pm 24.6 S 9 13 1011.9 - 44.2 Showers Mostly clear 10 - - - -
24/11:00pm 24.8 S 10 17 1012.3 - 44.2 - Mostly clear 10 - - - -
24/10:30pm 24.7 S 10 17 1012.4 - 43.8 Showers Mostly clear 8 - - - -
24/10:00pm 24.3 S 10 19 1012.4 - 43.8 Showers Mostly clear 9 - - - -
24/09:30pm 24.7 SSW 10 15 1012.7 - 43.8 Showers Mostly clear 9 - - - -
24/09:00pm 23.7 W 3 5 1012.4 - 43.8 - Cloudy 8 - - - -
24/08:54pm 23.8 WSW 4 7 1012.5 - 43.2 Showers Mostly clear 6 - - - -
24/08:30pm 23.7 S 7 12 1012.6 - 35.6 Showers Mostly clear 3 - - - -
24/08:29pm 23.7 S 7 12 1012.6 - 35.6 Showers Mostly clear 3 - - - -
24/08:15pm 23.9 ESE 3 7 1012.2 - 33.0 Showers Mostly clear 7 - - - -
24/08:00pm 23.8 ESE 2 6 1012.2 - 32.2 Showers Mostly clear 5 - - - -
24/07:30pm 23.8 S 11 16 1011.5 - 27.2 Showers Mostly clear 4 - - - -
24/07:00pm 23.7 SSE 7 11 1011.2 - 27.0 Showers Mostly clear 6 - - - -
24/06:30pm 23.4 S 6 11 1010.9 - 25.8 Showers Mostly clear 5 - - - -
24/06:00pm 23.6 S 8 14 1010.7 - 25.2 - Cloudy 5 - - - -
24/05:30pm 23.5 SSW 11 17 1010.6 - 25.2 - Mostly clear 9 - - - -
24/05:00pm 23.3 S 10 17 1010.3 - 24.6 Showers Mostly clear 6 - - - -
24/04:30pm 23.2 S 12 17 1010.0 - 24.0 Showers Mostly clear 6 - - - -
24/04:10pm 23.5 SSE 14 20 1009.9 - 20.4 Showers Partly cloudy 2 - - - -
24/04:00pm 24.3 SSE 14 19 1009.7 - 18.2 Showers Mostly clear 4 - - - -
24/03:30pm 24.5 S 10 15 1009.6 - 18.0 - Mostly clear 9 - - - -
24/03:00pm 24.7 S 7 12 1009.4 S 18.0 Recent precip. Cloudy 20 - - - -
24/02:50pm 24.7 S 7 12 1009.5 - 18.0 - Mostly clear 10 - - - -
24/02:30pm 24.8 S 7 12 1009.7 - 17.8 Showers Mostly clear 5 - - - -
24/02:00pm 24.3 S 9 13 1009.8 - 15.2 Showers Mostly clear 3 - - - -
24/01:30pm 24.3 S 8 14 1010.1 - 9.6 Showers Mostly clear 3 - - - -
24/01:00pm 24.4 S 10 16 1010.3 - 6.2 Showers Mostly clear 4 - - - -
24/12:54pm 24.9 S 11 15 1010.3 - 5.4 Showers Mostly clear 5 - - - -
24/12:30pm 24.8 S 12 17 1010.7 - 5.4 - Mostly clear 10 - - - -
24/12:22pm 24.7 S 10 16 1010.9 - 5.4 - Mostly clear 9 - - - -
24/12:00pm 24.8 S 7 9 1011.2 F 4.6 Showers Cloudy 3 - - - -
24/11:30am 24.8 ESE 7 10 1011.8 - 3.0 Showers Mostly clear 3 - - - -
24/11:00am 25.5 SSE 10 15 1012.0 - 0.0 Showers Mostly clear 3 - - - -
24/10:30am 25.5 SSE 12 16 1012.3 - 0.0 Showers Mostly clear 4 - - - -
24/10:24am 25.3 SSE 13 19 1012.4 - 0.0 Showers Mostly clear 4 - - - -
24/10:14am 27.1 S 12 16 1012.3 - 0.0 Showers Mostly clear 5 - - - -
24/10:00am 26.6 SSE 14 18 1012.4 - 0.0 - Mostly clear 10 - - - -
24/09:30am 26.7 S 9 15 1012.4 - 0.0 - Mostly clear 10 - - - -
24/09:00am 24.9 SSE 10 15 1012.2 R 0.2 Showers Mostly cloudy 25 - - - -
24/08:30am 24.7 S 9 14 1012.0 - 0.2 - Mostly clear 10 - - - -
24/08:16am 24.5 S 8 11 1011.9 - 0.2 - Mostly clear 10 - - - -
24/08:00am 24.1 SSE 9 15 1011.9 - 0.2 - Mostly clear 10 - - - -
24/07:51am 24.1 SSE 11 15 1011.9 - 0.2 Showers Mostly clear 8 - - - -
24/07:30am 24.1 SSE 12 18 1011.6 - 0.2 - Mostly clear 10 - - - -
24/07:00am 24.7 S 11 17 1011.2 - 0.2 Showers Mostly clear 5 - - - -
24/06:30am 24.6 S 13 22 1010.6 - 0.2 - Mostly clear 10 - - - -
24/06:00am 24.4 S 12 18 1010.4 F 0.2 Recent precip. Mostly cloudy 30 - - - -
24/05:30am 24.9 S 12 18 1010.2 - 0.2 - Mostly clear 10 - - - -
24/05:00am 24.9 S 13 17 1010.0 - 0.2 - Mostly clear 10 - - - -
24/04:30am 25.0 S 15 24 1009.4 - 0.2 - Mostly clear 10 - - - -
24/04:00am 24.7 SSE 15 20 1009.6 - 0.2 - Mostly clear 10 - - - -
24/03:30am 24.8 SSE 11 16 1010.1 - 0.2 - Mostly clear 10 - - - -
24/03:00am 24.8 S 11 16 1010.3 - 0.2 - Mostly clear 10 - - - -
24/02:30am 25.0 S 9 14 1010.7 - 0.2 - Mostly clear 10 - - - -
24/02:00am 25.1 S 8 13 1011.1 - 0.2 - Mostly clear 10 - - - -
24/01:30am 25.0 SSE 11 15 1011.1 - 0.2 - Mostly clear 10 - - - -
24/01:00am 25.1 SSE 11 14 1011.7 - 0.2 - Mostly clear 10 - - - -
24/12:30am 25.1 S 10 16 1011.9 - 0.2 - Mostly clear 10 - - - -
24/12:00am 25.4 S 11 16 1012.3 - 0.2 - Mostly clear 10 - - - -
 
Date/Time
EST
Temp

°C
Wind Pressure Rain
since 9am
mm
Weather Cloud Vis
km
Sea
Height
m
Swell
Dir
 
Speed
knots
Gust
knots
hPa Trend Height
m
Period
s
Dir
23/11:30pm 25.5 SSE 11 15 1012.6 - 0.2 - Mostly clear 10 - - - -
23/11:00pm 25.3 SSE 11 17 1012.9 - 0.2 - Partly cloudy 10 - - - -
23/10:30pm 25.3 SSE 8 14 1013.1 - 0.2 - Mostly clear 10 - - - -
23/10:00pm 25.5 S 12 22 1012.8 - 0.2 - Mostly clear 10 - - - -
23/09:30pm 25.4 S 13 19 1012.8 - 0.2 - Mostly clear 10 - - - -
23/09:00pm 25.1 S 8 13 1012.5 - 0.2 - Mostly clear 10 - - - -
23/08:30pm 25.6 S 13 18 1012.5 - 0.2 - Mostly clear 10 - - - -
23/08:00pm 25.4 S 9 15 1012.4 - 0.2 - Mostly clear 10 - - - -
23/07:30pm 25.3 SSE 8 12 1011.8 - 0.2 - Mostly clear 10 - - - -
23/07:00pm 25.5 SSE 8 10 1011.4 - 0.2 - Mostly clear 10 - - - -
23/06:30pm 25.8 SSE 10 14 1011.3 - 0.2 - Mostly clear 10 - - - -
23/06:00pm 26.2 S 7 10 1011.1 - 0.2 - Partly cloudy 10 - - - -
23/05:30pm 26.8 S 9 13 1011.0 - 0.2 - Mostly clear 10 - - - -
23/05:00pm 27.2 SE 12 15 1010.7 - 0.2 - Mostly clear 10 - - - -
23/04:30pm 27.5 SE 12 16 1010.5 - 0.2 - Mostly clear 10 - - - -
23/04:00pm 27.8 SE 13 18 1010.3 - 0.2 - Mostly clear 10 - - - -
23/03:30pm 28.2 SE 13 18 1010.4 - 0.2 - Mostly clear 10 - - - -
23/03:00pm 28.3 SE 15 18 1010.4 F 0.2 Fine Mostly cloudy 30 - - - -
23/02:30pm 29.1 SE 15 19 1010.6 - 0.0 - Mostly clear 10 - - - -
23/02:00pm 28.0 SE 15 19 1010.8 - 0.0 - Mostly clear 10 - - - -
23/01:30pm 28.8 SSE 16 19 1011.0 - 0.0 - Mostly clear 10 - - - -
23/01:00pm 28.0 SSE 13 20 1011.4 - 0.0 - Mostly clear 10 - - - -
23/12:30pm 27.6 SSE 15 18 1011.9 - 0.0 - Mostly clear 10 - - - -
23/12:00pm 27.3 SE 13 18 1012.3 F 0.0 Recent precip. Mostly cloudy 20 - - - -
23/11:30am 27.5 SE 16 21 1012.8 - 0.0 Showers Mostly clear 10 - - - -
23/11:00am 28.5 SSE 14 20 1013.1 - 0.0 - Mostly clear 10 - - - -
23/10:30am 27.1 S 10 15 1013.4 - 0.0 - Partly cloudy 10 - - - -
23/10:00am 26.4 S 9 13 1013.6 - 0.0 - Partly cloudy 10 - - - -
23/09:30am 25.6 S 8 15 1013.7 - 0.0 - Partly cloudy 10 - - - -
23/09:00am 25.5 S 8 15 1013.4 S 0.4 Distant precip. Mostly cloudy 25 - - - -
23/08:30am 25.5 S 10 15 1013.2 - 0.4 - Mostly clear 10 - - - -
23/08:00am 24.3 S 11 16 1013.2 - 0.4 Showers Mostly clear 5 - - - -
23/07:30am 24.5 S 11 16 1013.0 - 0.4 - Mostly clear 10 - - - -
23/07:10am 24.3 S 11 17 1012.7 - 0.4 Showers Partly cloudy 5 - - - -
23/07:00am 24.3 S 10 16 1012.4 - 0.4 - Mostly clear 10 - - - -
23/06:30am 24.2 SSE 11 14 1012.3 - 0.4 Showers Mostly clear 10 - - - -
23/06:00am 24.3 S 11 16 1011.8 F 0.4 Distant precip. Mostly cloudy 30 - - - -
23/05:30am 24.2 S 11 18 1011.5 - 0.4 - Mostly clear 10 - - - -
23/05:00am 24.1 S 11 16 1011.7 - 0.4 - Mostly clear 10 - - - -
23/04:30am 24.1 S 13 17 1011.7 - 0.4 - Mostly clear 10 - - - -
23/04:00am 24.1 S 10 16 1011.7 - 0.4 - Mostly clear 10 - - - -
23/03:30am 24.1 S 12 18 1011.7 - 0.4 - Mostly clear 10 - - - -
23/03:00am 23.9 S 10 15 1012.0 - 0.4 - Cloudy 10 - - - -
23/02:30am 24.3 SSE 12 17 1012.1 - 0.4 - Mostly clear 10 - - - -
23/02:00am 24.5 S 10 14 1012.5 - 0.4 - Mostly clear 10 - - - -
23/01:30am 24.5 S 11 16 1012.9 - 0.4 - Mostly clear 10 - - - -
23/01:00am 24.4 S 11 18 1013.2 - 0.4 - Mostly clear 10 - - - -
23/12:30am 24.4 S 11 17 1013.8 - 0.4 - Mostly clear 10 - - - -
23/12:00am 24.5 S 11 17 1014.0 - 0.4 - Mostly clear 10 - - - -
 
Date/Time
EST
Temp

°C
Wind Pressure Rain
since 9am
mm
Weather Cloud Vis
km
Sea
Height
m
Swell
Dir
 
Speed
knots
Gust
knots
hPa Trend Height
m
Period
s
Dir
22/11:30pm 24.1 S 11 18 1014.2 - 0.4 - Mostly clear 10 - - - -
22/11:00pm 24.2 S 9 14 1014.5 - 0.4 - Mostly clear 10 - - - -
22/10:30pm 24.0 S 9 14 1014.7 - 0.4 - Mostly clear 10 - - - -
22/10:00pm 24.1 SSE 11 15 1014.9 - 0.4 - Mostly clear 10 - - - -
22/09:30pm 24.4 SSE 10 15 1015.0 - 0.4 - Mostly clear 10 - - - -
22/09:00pm 24.7 S 9 11 1014.7 - 0.4 - Partly cloudy 10 - - - -
22/08:30pm 24.4 S 10 15 1014.7 - 0.4 - Mostly clear 10 - - - -
22/08:00pm 24.5 S 9 14 1014.6 - 0.4 - Mostly clear 10 - - - -
22/07:30pm 24.5 SSE 8 11 1014.3 - 0.4 - Mostly clear 10 - - - -

Other Formats:

Comma delimited format used in spreadsheet applications
http://www.bom.gov.au/fwo/IDQ60701/IDQ60701.94287.axf

JavaScript Object Notation format (JSON) in row-major order
http://www.bom.gov.au/fwo/IDQ60701/IDQ60701.94287.json